• Join FlightAware (Why Join?)
  • Login
  • US Flag 
08:13PM EDT


 

Airport Tracker/Info


-or-


 

Live Flight TrackerFlight Track Log ✈ N525BW ✈ 29-Apr-2012 ✈ KFTY - KORL

Flight Track Log - Related Links

Times and Time Zones

All times are in EDT time to prevent confusion due to time zone crossing. See the N525BW flight status page for this flight to view local times or setup timezone preferences in your user account.

Time Position Orientation Groundspeed Altitude Reporting Facility
EDT Latitude Longitude Course Direction KTS MPH feet Rate Location/Type
12:55PM 33.7584 -84.5117 151° Southeast  Level FlightAware Approximate
12:58PM 33.7167 -84.4833 180° South 199 229 5,300  Level Atlanta TRACON
12:59PM 33.6500 -84.4833 180° South 231 266 6,000 300 Climbing Atlanta TRACON
01:00PM 33.5833 -84.4833 180° South 270 311 6,000 660 Level Atlanta TRACON
01:01PM 33.5000 -84.4833 180° South 261 300 7,400 1,680 Climbing Atlanta TRACON
01:02PM 33.4333 -84.4833 176° South 250 288 9,300 1,920 Climbing Atlanta TRACON
01:03PM 33.3614 -84.4767 178° South 247 284 11,400 1,980 Climbing Atlanta Center
01:04PM 33.2967 -84.4739 181° South 232 267 13,500 2,040 Climbing Atlanta Center
01:05PM 33.2319 -84.4758 166° South 232 267 15,500 1,980 Climbing Atlanta Center
01:06PM 33.1714 -84.4583 159° South 232 267 17,500 1,740 Climbing Atlanta Center
01:07PM 33.1111 -84.4306 158° South 225 259 19,000 1,500 Climbing Atlanta Center
01:08PM 33.0486 -84.4006 159° South 231 266 20,600 1,560 Climbing Atlanta Center
01:09PM 32.9839 -84.3706 159° South 242 278 22,200 1,620 Climbing Atlanta Center
01:10PM 32.9192 -84.3408 158° South 247 284 23,900 1,440 Climbing Atlanta Center
01:11PM 32.8631 -84.3133 157° South 247 284 25,200 1,320 Climbing Atlanta Center
01:12PM 32.8006 -84.2811 157° South 247 284 26,600 1,320 Climbing Atlanta Center
01:13PM 32.7317 -84.2461 157° South 252 290 27,900 1,200 Climbing Atlanta Center
01:14PM 32.6628 -84.2117 157° South 257 296 29,000 540 Climbing Atlanta Center
01:15PM 32.5856 -84.1719 160° South 279 321 29,000  Level Atlanta Center
01:16PM 32.5000 -84.1350 157° South 308 354 29,000  Level Atlanta Center
01:17PM 32.4103 -84.0906 155° Southeast 332 382 29,000 660 Level Atlanta Center
01:18PM 32.3228 -84.0414 157° South 345 397 30,400 1,440 Climbing Atlanta Center
01:19PM 32.2433 -84.0019 157° South 331 381 31,900 600 Climbing Atlanta Center
01:22PM 31.9872 -83.8747 156° South 314 361 33,000 240 Climbing Jacksonville Center
01:23PM 31.9000 -83.8297 158° South 339 390 33,000  Level Jacksonville Center
01:24PM 31.8106 -83.7872 157° South 345 397 33,000  Level Jacksonville Center
01:25PM 31.7189 -83.7425 157° South 331 381 33,000  Level Jacksonville Center
01:26PM 31.6275 -83.6978 156° South 344 396 33,000  Level Jacksonville Center
01:27PM 31.5419 -83.6531 157° South 368 423 33,000  Level Jacksonville Center
01:28PM 31.4506 -83.6086 158° South 368 423 33,000  Level Jacksonville Center
01:29PM 31.3525 -83.5617 157° South 368 423 33,000  Level Jacksonville Center
01:30PM 31.2631 -83.5172 156° South 357 411 33,000  Level Jacksonville Center
01:31PM 31.1714 -83.4706 158° South 357 411 33,000  Level Jacksonville Center
01:32PM 31.0817 -83.4286 158° South 357 411 33,000 -360 Level Jacksonville Center
01:33PM 30.9900 -83.3844 156° South 357 411 32,300 -1,320 Descending Jacksonville Center
01:34PM 30.8942 -83.3356 159° South 357 411 30,400 -1,980 Descending Jacksonville Center
01:35PM 30.8025 -83.2942 142° Southeast 362 417 28,400 -2,040 Descending Jacksonville Center
01:36PM 30.7192 -83.2189 138° Southeast 362 417 26,400 -1,740 Descending Jacksonville Center
01:37PM 30.6442 -83.1414 137° Southeast 367 422 25,000 -720 Descending Jacksonville Center
01:38PM 30.5733 -83.0639 139° Southeast 361 415 25,000  Level Jacksonville Center
01:39PM 30.5025 -82.9914 139° Southeast 350 403 25,000  Level Jacksonville Center
01:40PM 30.4272 -82.9167 139° Southeast 350 403 25,000  Level Jacksonville Center
01:41PM 30.3542 -82.8419 139° Southeast 350 403 25,000  Level Jacksonville Center
01:42PM 30.2789 -82.7650 138° Southeast 355 409 25,000  Level Jacksonville Center
01:43PM 30.2078 -82.6908 142° Southeast 355 409 25,000  Level Jacksonville Center
01:44PM 30.1367 -82.6258 139° Southeast 355 409 25,000  Level Jacksonville Center
01:45PM 30.0636 -82.5517 136° Southeast 355 409 25,000  Level Jacksonville Center
01:46PM 29.9861 -82.4658 159° South 355 409 25,000  Level Jacksonville Center
01:47PM 29.8939 -82.4253 157° South 346 398 25,000 -540 Level Jacksonville Center
01:48PM 29.8019 -82.3803 157° South 351 404 24,000 -960 Descending Jacksonville Center
01:49PM 29.7247 -82.3425 156° South 351 404 23,100 -1,080 Descending Jacksonville Center
01:50PM 29.6367 -82.2975 158° South 351 404 21,900 -1,200 Descending Jacksonville Center
01:51PM 29.5467 -82.2553 157° South 351 404 20,700 -1,260 Descending Jacksonville Center
01:52PM 29.4608 -82.2128 158° South 351 404 19,400 -1,440 Descending Jacksonville Center
01:53PM 29.3814 -82.1753 156° South 333 383 17,900 -1,440 Descending Jacksonville Center
01:54PM 29.3039 -82.1353 157° South 316 364 16,600 -960 Descending Jacksonville Center
01:55PM 29.2306 -82.1003 158° South 304 350 16,000 -1,200 Descending Jacksonville Center
01:56PM 29.1533 -82.0650 157° South 299 344 14,300 -1,860 Descending Jacksonville Center
01:57PM 29.0778 -82.0278 157° South 299 344 12,300 -1,680 Descending Jacksonville Center
01:58PM 29.0067 -81.9928 158° South 294 338 11,000 -660 Descending Jacksonville Center
01:59PM 28.9375 -81.9603 148° Southeast 287 330 11,000  Level Jacksonville Center
02:00PM 28.8725 -81.9133 125° Southeast 281 323 11,000 -240 Level Jacksonville Center
02:01PM 28.8333 -81.8500 139° Southeast 257 296 10,600 -960 Descending Orlando TRACON
02:02PM 28.7833 -81.8000 150° Southeast 230 265 9,300 -1,260 Descending Orlando TRACON
02:03PM 28.7333 -81.7667 150° Southeast 214 246 8,100 -1,320 Descending Orlando TRACON
02:04PM 28.6833 -81.7333 120° Southeast 215 247 6,700 -1,500 Descending Orlando TRACON
02:05PM 28.6500 -81.6667 127° Southeast 203 234 5,200 -1,380 Descending Orlando TRACON
02:06PM 28.6167 -81.6167 127° Southeast 190 219 4,000 -1,200 Descending Orlando TRACON
02:07PM 28.5833 -81.5667 111° Southeast 197 227 2,800 -1,020 Descending Orlando TRACON
02:08PM 28.5667 -81.5167 139° Southeast 189 217 2,000 -420 Descending Orlando TRACON
02:09PM 28.5333 -81.4833 111° Southeast 173 199 2,000  Level Orlando TRACON
02:10PM 28.5167 -81.4333 90° East 153 176 2,100 -420 Climbing Orlando TRACON
02:11PM 28.5167 -81.4000 60° Northeast 136 157 1,200 -780 Descending Orlando TRACON
02:12PM 28.5333 -81.3667 60° Northeast 118 136 600 -600 Descending Orlando TRACON